Mount Zion, Iowa
Current Conditions -  °F | °C
As of 1:35 PM on Friday 24 Oct 2014 (Local Time) from KFFL Reporting Station
Overcast Overcast  
Wind Chill: 64°   Ceiling: 1300
Heat Index: 64°   Visibility: NA
Dew Point: 57°   Wind: 15mph
Humidity: 77%   Direction: 170°S
Pressure: 29.98"   Gusts: NA
Location:  40.7687°N, 92.0788°W
Report Text: KFFL 241835Z AUTO 17013KT BKN013 OVC034 18/14 A2998 RMK AO2
Loading
Personal Weather Stations






























Interactive Weather Map
Tropical Storm Tracking
New forecast layout! Learn more

10-Day Weather Forecast

Advertisements
Track Severe Weather on mobile